Time;durP1;ratioP1;P1;durP2;ratioP2;P2;SDS_P1;SDS_P2;PMS_P1;PMS_P2;Temp;Humidity;BMP_temperature;BMP_pressure;BME280_temperature;BME280_humidity;BME280_pressure;Samples;Min_cycle;Max_cycle;Signal;HPM_P1;HPM_P2
2022/09/08 00:00:38;;;;;;;0.63;0.63;;;17.20;99.90;;;;;;5015317;28;20410;-72
2022/09/08 00:03:06;;;;;;;0.30;0.30;;;17.20;99.90;;;;;;5015517;28;20917;-71
2022/09/08 00:05:37;;;;;;;0.43;0.43;;;17.20;99.90;;;;;;5015384;28;20407;-71
2022/09/08 00:08:03;;;;;;;0.50;0.50;;;17.30;99.90;;;;;;5015407;28;20441;-72
2022/09/08 00:10:30;;;;;;;0.67;0.67;;;17.10;99.90;;;;;;5015085;28;20441;-70
2022/09/08 00:12:57;;;;;;;0.30;0.30;;;;;;;;;;5015413;28;20505;-73
2022/09/08 00:15:23;;;;;;;0.50;0.50;;;;;;;;;;5015045;28;20435;-72
2022/09/08 00:17:49;;;;;;;0.30;0.30;;;;;;;;;;5015117;28;20466;-70
2022/09/08 00:20:15;;;;;;;0.40;0.40;;;;;;;;;;5014638;28;20410;-71
2022/09/08 00:22:41;;;;;;;0.70;0.70;;;;;;;;;;5015249;28;20402;-71
2022/09/08 00:25:08;;;;;;;0.83;0.83;;;17.30;99.90;;;;;;5015094;28;20403;-70
2022/09/08 00:27:34;;;;;;;0.63;0.63;;;;;;;;;;5015156;28;20481;-72
2022/09/08 00:30:00;;;;;;;0.50;0.50;;;;;;;;;;5014778;28;20893;-72
2022/09/08 00:32:26;;;;;;;0.40;0.40;;;;;;;;;;5015476;28;20460;-72
2022/09/08 00:34:52;;;;;;;0.50;0.50;;;;;;;;;;5014830;28;20415;-71
2022/09/08 00:37:18;;;;;;;0.40;0.40;;;;;;;;;;5014680;28;20466;-72
2022/09/08 00:39:44;;;;;;;0.40;0.40;;;;;;;;;;5014875;28;20899;-71
2022/09/08 00:42:10;;;;;;;0.60;0.60;;;;;;;;;;5014706;28;20409;-71
2022/09/08 00:44:51;;;;;;;0.50;0.50;;;17.00;99.90;;;;;;5014785;28;20395;-69
2022/09/08 00:47:40;;;;;;;0.30;0.30;;;17.20;99.90;;;;;;5014965;28;20458;-70
2022/09/08 00:50:16;;;;;;;0.37;0.37;;;16.70;99.90;;;;;;5014378;28;20413;-71
2022/09/08 00:52:47;;;;;;;0.60;0.60;;;16.90;99.90;;;;;;5014773;28;20410;-72
2022/09/08 00:55:14;;;;;;;3.50;2.77;;;16.90;99.90;;;;;;5014631;28;20581;-72
2022/09/08 00:57:40;;;;;;;0.50;0.40;;;;;;;;;;5014264;28;20470;-72
2022/09/08 01:00:08;;;;;;;0.47;0.40;;;17.00;99.90;;;;;;5014192;28;20440;-70
2022/09/08 01:02:34;;;;;;;0.30;0.30;;;;;;;;;;5013021;28;20411;-72
2022/09/08 01:05:06;;;;;;;0.53;0.53;;;16.70;99.90;;;;;;5014316;28;20414;-70
2022/09/08 01:13:26;;;;;;;0.40;0.40;;;16.70;99.90;;;;;;5014444;28;20756;-72
2022/09/08 01:15:52;;;;;;;0.50;0.50;;;;;;;;;;5013693;28;20508;-70
2022/09/08 01:18:18;;;;;;;0.40;0.40;;;;;;;;;;5013704;28;20472;-72
2022/09/08 01:20:56;;;;;;;0.40;0.40;;;16.60;99.90;;;;;;5012370;28;20406;-71
2022/09/08 01:23:41;;;;;;;0.83;0.57;;;17.10;99.90;;;;;;5014268;28;20407;-71
2022/09/08 01:26:28;;;;;;;0.40;0.40;;;;;;;;;;5013881;28;20903;-71
2022/09/08 01:29:00;;;;;;;0.40;0.40;;;17.10;99.90;;;;;;5000365;28;20758;-70
2022/09/08 01:31:26;;;;;;;0.40;0.40;;;;;;;;;;5013219;28;20790;-71
2022/09/08 01:33:52;;;;;;;0.40;0.40;;;;;;;;;;5014060;28;20405;-72
2022/09/08 01:36:19;;;;;;;0.30;0.30;;;;;;;;;;5013932;28;20430;-72
2022/09/08 01:38:45;;;;;;;0.30;0.30;;;16.70;99.90;;;;;;5013688;28;20513;-71
2022/09/08 01:41:13;;;;;;;0.30;0.30;;;;;;;;;;5013634;28;20502;-72
2022/09/08 01:43:40;;;;;;;0.40;0.40;;;;;;;;;;5013826;28;20406;-70
2022/09/08 01:46:06;;;;;;;0.60;0.60;;;;;;;;;;5012614;28;20486;-71
2022/09/08 01:48:32;;;;;;;0.47;0.47;;;;;;;;;;5013651;28;20434;-71
2022/09/08 01:51:00;;;;;;;0.30;0.30;;;16.50;99.90;;;;;;5013655;28;20903;-72
2022/09/08 01:53:26;;;;;;;0.30;0.30;;;;;;;;;;5013818;28;20777;-70
2022/09/08 01:55:52;;;;;;;1.27;1.17;;;;;;;;;;5014074;28;20414;-71
2022/09/08 01:58:18;;;;;;;0.70;0.70;;;;;;;;;;5013478;28;20457;-72
2022/09/08 02:00:44;;;;;;;0.50;0.50;;;;;;;;;;5013490;28;20402;-73
2022/09/08 02:03:11;;;;;;;0.30;0.30;;;16.60;99.90;;;;;;5013734;28;20398;-72
2022/09/08 02:05:38;;;;;;;0.40;0.40;;;16.60;99.90;;;;;;5012465;28;20903;-73
2022/09/08 02:08:04;;;;;;;0.30;0.30;;;;;;;;;;5013492;28;20478;-71
2022/09/08 02:10:30;;;;;;;0.40;0.40;;;;;;;;;;5013351;28;20406;-70
2022/09/08 02:12:57;;;;;;;0.30;0.30;;;;;;;;;;5013700;28;20501;-72
2022/09/08 02:15:23;;;;;;;0.50;0.50;;;;;;;;;;5013506;28;20430;-70
2022/09/08 02:17:49;;;;;;;0.50;0.50;;;;;;;;;;5013248;28;20466;-71
2022/09/08 02:20:15;;;;;;;0.40;0.40;;;;;;;;;;5011976;28;20445;-72
2022/09/08 02:22:41;;;;;;;0.37;0.37;;;;;;;;;;5012138;28;20998;-70
2022/09/08 02:25:08;;;;;;;1.00;0.80;;;;;;;;;;5013381;28;20429;-71
2022/09/08 02:27:34;;;;;;;0.40;0.40;;;;;;;;;;5013432;28;20437;-70
2022/09/08 02:30:00;;;;;;;0.40;0.40;;;;;;;;;;5013219;28;20411;-72
2022/09/08 02:32:26;;;;;;;0.87;0.80;;;;;;;;;;5013257;28;20441;-71
2022/09/08 02:34:52;;;;;;;0.50;0.50;;;;;;;;;;5013214;28;20468;-71
2022/09/08 02:37:18;;;;;;;0.30;0.30;;;;;;;;;;5013000;28;20492;-70
2022/09/08 02:39:44;;;;;;;0.30;0.30;;;;;;;;;;5012870;28;20906;-70
2022/09/08 02:42:11;;;;;;;1.13;0.70;;;;;;;;;;5013257;28;20406;-72
2022/09/08 02:44:37;;;;;;;0.30;0.30;;;;;;;;;;5016622;28;20489;-73
2022/09/08 02:47:03;;;;;;;2.10;0.90;;;;;;;;;;5016901;28;20434;-70
2022/09/08 02:49:31;;;;;;;0.30;0.30;;;;;;;;;;5016790;28;20441;-71
2022/09/08 02:51:57;;;;;;;2.40;2.30;;;;;;;;;;5016787;28;20484;-73
2022/09/08 02:54:23;;;;;;;0.40;0.40;;;;;;;;;;5016722;28;20445;-72
2022/09/08 02:56:50;;;;;;;0.30;0.30;;;;;;;;;;5016519;28;20600;-72
2022/09/08 02:59:16;;;;;;;0.60;0.60;;;;;;;;;;5016742;28;20416;-70
2022/09/08 03:01:43;;;;;;;0.30;0.30;;;16.50;99.90;;;;;;5016614;28;20437;-71
2022/09/08 03:04:09;;;;;;;0.30;0.30;;;;;;;;;;5016669;28;20779;-70
2022/09/08 03:06:36;;;;;;;0.30;0.30;;;;;;;;;;5016835;28;20414;-72
2022/09/08 03:09:02;;;;;;;0.30;0.30;;;;;;;;;;5016644;28;20402;-70
2022/09/08 03:11:28;;;;;;;0.50;0.50;;;;;;;;;;5015058;28;20413;-72
2022/09/08 03:13:54;;;;;;;0.30;0.30;;;;;;;;;;5016141;28;20914;-72
2022/09/08 03:16:21;;;;;;;2.40;0.60;;;;;;;;;;5016393;28;20414;-71
2022/09/08 03:18:48;;;;;;;0.30;0.30;;;;;;;;;;5016136;28;20500;-72
2022/09/08 03:21:14;;;;;;;0.30;0.30;;;16.60;99.90;;;;;;5014857;28;20410;-70
2022/09/08 03:23:40;;;;;;;0.37;0.37;;;;;;;;;;5016207;28;20468;-70
2022/09/08 03:26:11;;;;;;;0.40;0.40;;;16.60;99.90;;;;;;5016236;28;20402;-72
2022/09/08 03:28:38;;;;;;;0.67;0.67;;;;;;;;;;5016281;28;20495;-71
2022/09/08 03:31:13;;;;;;;0.40;0.40;;;16.50;99.90;;;;;;5015881;28;20819;-71
2022/09/08 03:33:39;;;;;;;1.07;1.03;;;;;;;;;;5016409;28;20417;-72
2022/09/08 03:36:07;;;;;;;0.30;0.30;;;16.60;99.90;;;;;;5015924;28;20758;-71
2022/09/08 03:38:34;;;;;;;0.40;0.40;;;16.40;99.90;;;;;;5015932;28;20982;-70
2022/09/08 03:41:00;;;;;;;0.40;0.40;;;;;;;;;;5015888;28;20403;-72
2022/09/08 03:43:26;;;;;;;0.53;0.53;;;;;;;;;;5015985;28;20407;-72
2022/09/08 03:45:52;;;;;;;0.80;0.80;;;;;;;;;;5015937;28;20396;-73
2022/09/08 03:48:18;;;;;;;0.40;0.40;;;;;;;;;;5015611;28;20434;-72
2022/09/08 03:50:45;;;;;;;1.03;1.03;;;;;;;;;;5015478;28;20406;-70
2022/09/08 03:53:11;;;;;;;0.40;0.40;;;16.40;99.90;;;;;;5015540;28;20509;-70
2022/09/08 03:55:41;;;;;;;0.40;0.40;;;16.30;99.90;;;;;;5015155;28;20802;-72
2022/09/08 03:58:07;;;;;;;0.40;0.40;;;;;;;;;;5015566;28;20458;-71
2022/09/08 04:00:33;;;;;;;0.50;0.50;;;;;;;;;;5015253;28;20779;-70
2022/09/08 04:02:59;;;;;;;0.90;0.90;;;;;;;;;;5014155;28;20891;-70
2022/09/08 04:05:26;;;;;;;0.30;0.30;;;;;;;;;;5015411;28;20973;-71
2022/09/08 04:07:52;;;;;;;0.37;0.37;;;;;;;;;;5015250;28;20521;-70
2022/09/08 04:10:19;;;;;;;0.63;0.50;;;;;;;;;;5015377;28;20414;-70
2022/09/08 04:12:45;;;;;;;0.63;0.63;;;;;;;;;;5015529;28;20410;-72
2022/09/08 04:15:12;;;;;;;0.40;0.40;;;;;;;;;;5015105;28;20805;-70
2022/09/08 04:17:38;;;;;;;0.30;0.30;;;16.20;99.90;;;;;;5015207;28;20492;-73
2022/09/08 04:20:05;;;;;;;0.30;0.30;;;16.20;99.90;;;;;;5014984;28;20421;-70
2022/09/08 04:22:31;;;;;;;0.40;0.40;;;;;;;;;;5015129;28;20403;-72
2022/09/08 04:24:58;;;;;;;0.30;0.30;;;;;;;;;;5015127;28;20434;-71
2022/09/08 04:27:24;;;;;;;0.60;0.60;;;;;;;;;;5015137;28;20435;-71
2022/09/08 04:29:50;;;;;;;0.70;0.70;;;;;;;;;;5014751;28;20758;-72
2022/09/08 04:32:16;;;;;;;1.00;0.90;;;;;;;;;;5015325;28;20770;-72
2022/09/08 04:34:42;;;;;;;0.30;0.30;;;;;;;;;;5014901;28;20804;-70
2022/09/08 04:37:08;;;;;;;0.50;0.50;;;;;;;;;;5014757;28;20497;-70
2022/09/08 04:39:35;;;;;;;0.40;0.40;;;;;;;;;;5014550;28;20489;-70
2022/09/08 04:42:01;;;;;;;0.60;0.60;;;;;;;;;;5014796;28;20405;-70
2022/09/08 04:44:27;;;;;;;0.30;0.30;;;;;;;;;;5014791;28;20917;-70
2022/09/08 04:46:53;;;;;;;1.27;1.17;;;;;;;;;;5014980;28;20829;-70
2022/09/08 04:49:19;;;;;;;0.30;0.30;;;;;;;;;;5014620;28;20432;-70
2022/09/08 04:51:45;;;;;;;0.30;0.30;;;;;;;;;;5014513;28;20898;-72
2022/09/08 04:54:12;;;;;;;1.07;1.07;;;;;;;;;;5014691;28;20477;-72
2022/09/08 04:56:38;;;;;;;0.73;0.63;;;;;;;;;;5014471;28;20455;-72
2022/09/08 04:59:04;;;;;;;0.50;0.50;;;;;;;;;;5014361;28;20417;-71
2022/09/08 05:01:32;;;;;;;0.30;0.30;;;15.70;99.90;;;;;;5012959;28;20445;-73
2022/09/08 05:04:01;;;;;;;0.37;0.37;;;15.80;99.90;;;;;;5014444;28;20433;-71
2022/09/08 05:06:28;;;;;;;0.60;0.50;;;15.80;99.90;;;;;;5013202;28;20414;-72
2022/09/08 05:08:58;;;;;;;0.53;0.43;;;15.80;99.90;;;;;;5013680;28;20789;-70
2022/09/08 05:11:25;;;;;;;0.30;0.30;;;;;;;;;;5013624;28;20468;-70
2022/09/08 05:13:51;;;;;;;0.30;0.30;;;;;;;;;;5013931;28;20414;-71
2022/09/08 05:16:21;;;;;;;0.40;0.40;;;15.80;99.90;;;;;;5013165;28;20917;-70
2022/09/08 05:18:49;;;;;;;0.40;0.40;;;15.80;99.90;;;;;;5013811;28;20481;-70
2022/09/08 05:21:15;;;;;;;0.30;0.30;;;;;;;;;;5012104;28;20570;-72
2022/09/08 05:23:41;;;;;;;0.97;0.97;;;;;;;;;;5014223;28;20402;-72
2022/09/08 05:26:10;;;;;;;0.50;0.50;;;16.00;99.90;;;;;;5013996;28;20421;-73
2022/09/08 05:28:38;;;;;;;0.40;0.40;;;16.00;99.90;;;;;;5013285;28;20487;-71
2022/09/08 05:31:05;;;;;;;0.63;0.63;;;16.00;99.90;;;;;;5013767;28;20771;-71
2022/09/08 05:33:31;;;;;;;1.03;1.03;;;;;;;;;;5012931;28;20414;-71
2022/09/08 05:35:58;;;;;;;0.30;0.30;;;16.00;99.90;;;;;;5014337;28;20451;-70
2022/09/08 05:38:24;;;;;;;0.40;0.40;;;;;;;;;;5013794;28;20989;-70
2022/09/08 05:40:50;;;;;;;0.40;0.40;;;;;;;;;;5013728;28;20436;-70
2022/09/08 05:43:17;;;;;;;0.30;0.30;;;16.10;99.90;;;;;;5013986;28;20406;-70
2022/09/08 05:45:47;;;;;;;0.57;0.57;;;16.00;99.90;;;;;;5012493;28;20825;-71
2022/09/08 05:48:13;;;;;;;0.47;0.47;;;;;;;;;;5014207;28;20435;-71
2022/09/08 05:50:44;;;;;;;1.60;0.90;;;16.00;99.90;;;;;;5013860;28;20406;-72
2022/09/08 05:53:10;;;;;;;0.40;0.40;;;;;;;;;;5013114;28;20408;-71
2022/09/08 05:55:36;;;;;;;0.53;0.53;;;;;;;;;;5012397;28;20406;-71
2022/09/08 05:58:02;;;;;;;0.37;0.37;;;;;;;;;;5013557;28;20472;-72
2022/09/08 06:00:29;;;;;;;0.40;0.40;;;;;;;;;;5013450;28;20806;-71
2022/09/08 06:02:55;;;;;;;0.37;0.37;;;;;;;;;;5012693;28;20767;-72
2022/09/08 06:05:22;;;;;;;0.53;0.53;;;16.00;99.90;;;;;;5013529;28;20399;-71
2022/09/08 06:07:49;;;;;;;0.30;0.30;;;16.00;99.90;;;;;;5013209;28;20438;-72
2022/09/08 06:10:16;;;;;;;0.30;0.30;;;16.10;99.90;;;;;;5013428;28;20410;-71
2022/09/08 06:12:42;;;;;;;0.50;0.50;;;;;;;;;;5013086;28;20413;-72
2022/09/08 06:15:08;;;;;;;0.30;0.30;;;;;;;;;;5012956;28;20425;-72
2022/09/08 06:17:34;;;;;;;0.40;0.40;;;;;;;;;;5013768;28;20461;-71
2022/09/08 06:20:00;;;;;;;1.67;1.57;;;;;;;;;;5017168;28;20398;-71
2022/09/08 06:22:29;;;;;;;0.50;0.50;;;15.90;99.90;;;;;;5017472;28;20410;-72
2022/09/08 06:24:55;;;;;;;0.97;0.97;;;;;;;;;;5017414;28;20786;-71
2022/09/08 06:27:27;;;;;;;0.30;0.30;;;16.00;99.90;;;;;;5017223;28;20424;-71
2022/09/08 06:30:10;;;;;;;0.63;0.63;;;16.10;99.90;;;;;;5017023;28;20414;-71
2022/09/08 06:32:48;;;;;;;0.70;0.57;;;16.10;99.90;;;;;;5017345;28;20564;-72
2022/09/08 06:35:19;;;;;;;1.03;1.03;;;16.20;99.90;;;;;;5017372;28;20405;-71
2022/09/08 06:38:04;;;;;;;3.03;0.87;;;16.10;99.90;;;;;;5017012;28;20478;-72
2022/09/08 06:40:35;;;;;;;0.40;0.40;;;16.20;99.90;;;;;;5016870;28;20996;-71
2022/09/08 06:43:11;;;;;;;0.60;0.60;;;16.20;99.90;;;;;;5017055;28;20405;-72
2022/09/08 06:45:41;;;;;;;0.30;0.30;;;16.20;99.90;;;;;;5016429;28;20491;-71
2022/09/08 06:48:36;;;;;;;0.40;0.40;;;16.30;99.90;;;;;;5015966;28;20807;-72
2022/09/08 06:51:33;;;;;;;0.67;0.60;;;16.20;99.90;;;;;;5016576;28;20405;-72
2022/09/08 06:54:08;;;;;;;0.60;0.60;;;16.30;99.90;;;;;;5006079;28;20410;-72
2022/09/08 06:57:11;;;;;;;0.30;0.30;;;16.40;99.90;;;;;;5016708;28;20768;-72
2022/09/08 07:00:06;;;;;;;0.70;0.70;;;16.30;99.90;;;;;;5016496;28;20409;-71
2022/09/08 07:03:09;;;;;;;0.40;0.40;;;16.30;99.90;;;;;;5009457;28;20453;-72
2022/09/08 07:05:56;;;;;;;0.40;0.40;;;16.30;99.90;;;;;;5014498;28;20447;-72
2022/09/08 07:08:43;;;;;;;0.53;0.53;;;16.40;99.90;;;;;;5014932;28;20422;-71
2022/09/08 07:11:28;;;;;;;0.30;0.30;;;16.40;99.90;;;;;;5016395;28;20452;-71
2022/09/08 07:14:07;;;;;;;0.30;0.30;;;16.30;99.90;;;;;;5015430;28;20410;-73
2022/09/08 07:16:43;;;;;;;0.30;0.30;;;16.40;99.90;;;;;;5013515;28;20438;-71
2022/09/08 07:19:17;;;;;;;0.40;0.40;;;16.40;99.90;;;;;;5015003;28;20402;-71
2022/09/08 07:22:14;;;;;;;0.40;0.40;;;16.40;99.90;;;;;;5015230;28;20850;-71
2022/09/08 07:24:41;;;;;;;0.37;0.37;;;;;;;;;;5004454;28;20525;-72
2022/09/08 07:27:13;;;;;;;0.40;0.40;;;16.40;99.90;;;;;;5015165;28;20504;-72
2022/09/08 07:29:43;;;;;;;0.30;0.30;;;16.40;99.90;;;;;;5014771;28;20460;-71
2022/09/08 07:32:20;;;;;;;0.40;0.40;;;16.10;99.90;;;;;;5016491;28;20417;-71
2022/09/08 07:35:19;;;;;;;0.70;0.70;;;16.60;99.90;;;;;;5016281;28;20410;-70
2022/09/08 07:37:51;;;;;;;0.40;0.40;;;16.90;99.90;;;;;;5015610;28;20473;-72
2022/09/08 07:40:22;;;;;;;0.50;0.50;;;16.60;99.90;;;;;;5015836;28;20497;-71
2022/09/08 07:42:56;;;;;;;0.80;0.80;;;17.00;99.90;;;;;;5016266;28;20403;-71
2022/09/08 07:45:48;;;;;;;0.50;0.50;;;16.80;99.90;;;;;;5016303;28;20405;-71
2022/09/08 07:48:34;;;;;;;0.67;0.67;;;17.00;99.90;;;;;;5016006;28;20466;-71
2022/09/08 07:51:19;;;;;;;0.40;0.40;;;17.10;99.90;;;;;;5016224;28;20501;-72
2022/09/08 07:53:57;;;;;;;0.40;0.40;;;17.00;99.90;;;;;;5015668;28;20832;-70
2022/09/08 07:56:39;;;;;;;0.40;0.40;;;17.20;99.90;;;;;;5014329;28;20456;-72
2022/09/08 07:59:24;;;;;;;0.80;0.63;;;17.20;99.90;;;;;;5015710;28;20391;-71
2022/09/08 08:01:50;;;;;;;0.73;0.70;;;;;;;;;;5015976;28;20410;-71
2022/09/08 08:04:24;;;;;;;0.30;0.30;;;;;;;;;;5015608;28;20402;-70
2022/09/08 08:06:52;;;;;;;0.63;0.63;;;17.00;99.90;;;;;;5015370;28;20532;-71
2022/09/08 08:09:40;;;;;;;0.93;0.40;;;17.00;99.90;;;;;;5015179;28;20949;-71
2022/09/08 08:12:59;;;;;;;1.00;1.00;;;17.50;99.90;;;;;;5014431;28;20418;-71
2022/09/08 08:16:11;;;;;;;1.43;0.90;;;16.90;99.90;;;;;;4935886;29;20461;-71
2022/09/08 08:18:57;;;;;;;0.50;0.50;;;16.80;99.90;;;;;;5005136;28;20481;-71
2022/09/08 08:21:35;;;;;;;0.40;0.40;;;16.70;99.90;;;;;;5015253;28;20418;-72
2022/09/08 08:24:12;;;;;;;1.60;0.70;;;16.50;99.90;;;;;;5015612;28;20464;-73
2022/09/08 08:26:48;;;;;;;0.80;0.80;;;16.70;99.90;;;;;;5014806;28;20773;-71
2022/09/08 08:29:14;;;;;;;0.57;0.40;;;;;;;;;;5014555;28;20414;-72
2022/09/08 08:31:44;;;;;;;1.33;0.50;;;17.00;99.90;;;;;;5014824;28;20421;-71
2022/09/08 08:34:24;;;;;;;1.23;1.13;;;16.90;99.90;;;;;;5014432;28;20415;-70
2022/09/08 08:36:53;;;;;;;0.40;0.40;;;17.10;99.90;;;;;;5014092;28;21068;-70
2022/09/08 08:39:22;;;;;;;0.40;0.40;;;17.10;99.90;;;;;;5015327;28;20417;-72
2022/09/08 08:42:29;;;;;;;0.60;0.50;;;17.10;99.90;;;;;;5015020;28;20405;-70
2022/09/08 08:45:18;;;;;;;0.40;0.40;;;17.20;99.90;;;;;;5013215;28;20971;-72
2022/09/08 08:48:07;;;;;;;0.40;0.40;;;17.60;99.90;;;;;;5014192;28;20435;-72
2022/09/08 08:50:33;;;;;;;0.80;0.80;;;;;;;;;;5014897;28;20497;-70
2022/09/08 08:52:59;;;;;;;0.50;0.50;;;;;;;;;;5013550;28;20767;-71
2022/09/08 08:55:52;;;;;;;0.30;0.30;;;18.10;99.90;;;;;;5014475;28;20413;-72
2022/09/08 08:58:45;;;;;;;0.47;0.47;;;18.10;99.90;;;;;;5013918;28;20571;-70
2022/09/08 09:01:11;;;;;;;0.30;0.30;;;;;;;;;;5014494;28;20489;-70
2022/09/08 09:03:59;;;;;;;0.40;0.40;;;18.20;99.90;;;;;;5013189;28;20938;-69
2022/09/08 09:06:25;;;;;;;0.40;0.40;;;;;;;;;;5015056;28;20422;-70
2022/09/08 09:09:03;;;;;;;0.30;0.30;;;17.90;99.90;;;;;;5014761;28;20447;-71
2022/09/08 09:11:58;;;;;;;0.50;0.50;;;17.70;99.90;;;;;;5014225;28;20420;-72
2022/09/08 09:14:45;;;;;;;0.30;0.30;;;18.00;99.90;;;;;;5014355;28;20510;-70
2022/09/08 09:17:36;;;;;;;0.77;0.70;;;17.90;99.90;;;;;;5014270;28;20465;-71
2022/09/08 09:20:22;;;;;;;1.13;1.13;;;19.20;99.90;;;;;;5012446;28;20886;-72
2022/09/08 09:23:07;;;;;;;1.10;0.97;;;20.20;99.90;;;;;;5013539;28;20406;-72
2022/09/08 09:25:35;;;;;;;1.03;0.90;;;20.90;99.90;;;;;;5013388;28;20406;-72
2022/09/08 09:28:26;;;;;;;0.63;0.63;;;21.50;99.90;;;;;;5013659;28;20437;-71
2022/09/08 09:30:52;;;;;;;0.40;0.40;;;;;;;;;;5013972;28;20409;-72
2022/09/08 09:33:51;;;;;;;0.93;0.93;;;21.20;97.70;;;;;;5013821;28;20911;-72
2022/09/08 09:36:42;;;;;;;0.40;0.40;;;20.80;99.90;;;;;;5013860;28;20411;-72
2022/09/08 09:39:37;;;;;;;0.47;0.47;;;20.40;99.90;;;;;;5014210;28;20399;-71
2022/09/08 09:42:09;;;;;;;0.67;0.67;;;22.30;99.90;;;;;;5014421;28;20406;-71
2022/09/08 09:44:35;;;;;;;0.40;0.40;;;;;;;;;;5014195;28;20464;-72
2022/09/08 09:47:27;;;;;;;0.50;0.50;;;24.40;99.90;;;;;;5013453;28;20812;-72
2022/09/08 09:49:53;;;;;;;0.40;0.37;;;;;;;;;;5012647;28;20473;-72
2022/09/08 09:52:54;;;;;;;0.63;0.63;;;23.80;90.90;;;;;;5013431;28;20494;-72
2022/09/08 09:55:22;;;;;;;0.77;0.77;;;23.10;99.90;;;;;;4996431;28;20422;-72
2022/09/08 09:58:12;;;;;;;0.40;0.40;;;23.80;99.90;;;;;;5013522;28;20432;-71
2022/09/08 10:00:50;;;;;;;0.30;0.30;;;24.40;92.80;;;;;;5013734;28;20402;-72
2022/09/08 10:03:55;;;;;;;0.90;0.60;;;25.30;94.20;;;;;;5013532;28;20739;-72
2022/09/08 10:06:22;;;;;;;0.70;0.40;;;;;;;;;;5012811;28;20992;-72
2022/09/08 10:08:59;;;;;;;1.33;0.40;;;24.60;99.90;;;;;;5013478;28;20480;-72
2022/09/08 10:11:31;;;;;;;0.30;0.30;;;25.10;87.20;;;;;;5012504;28;20392;-72
2022/09/08 10:14:05;;;;;;;0.33;0.33;;;25.30;88.70;;;;;;5011659;28;20743;-71
2022/09/08 10:16:52;;;;;;;0.30;0.30;;;25.30;90.00;;;;;;5013041;28;20409;-73
2022/09/08 10:19:18;;;;;;;0.30;0.30;;;;;;;;;;5013312;28;20410;-72
2022/09/08 10:21:44;;;;;;;0.93;0.93;;;;;;;;;;5013381;28;20382;-72
2022/09/08 10:24:34;;;;;;;0.30;0.30;;;25.80;92.40;;;;;;5013359;28;21364;-72
2022/09/08 10:27:36;;;;;;;0.50;0.50;;;26.60;88.20;;;;;;5013257;28;20906;-72
2022/09/08 10:30:25;;;;;;;0.40;0.30;;;27.00;99.90;;;;;;5013107;28;20410;-72
2022/09/08 10:33:11;;;;;;;0.50;0.50;;;27.10;99.90;;;;;;5013506;28;20896;-72
2022/09/08 10:35:46;;;;;;;0.40;0.40;;;27.20;99.90;;;;;;5011697;28;20411;-73
2022/09/08 10:38:39;;;;;;;0.40;0.40;;;26.50;80.30;;;;;;5011457;28;20539;-72
2022/09/08 10:41:28;;;;;;;0.40;0.40;;;26.20;99.90;;;;;;5012267;28;20410;-72
2022/09/08 10:44:20;;;;;;;0.50;0.50;;;26.20;84.50;;;;;;5013433;28;20772;-72
2022/09/08 10:47:08;;;;;;;0.30;0.30;;;25.60;99.90;;;;;;5004177;28;20909;-73
2022/09/08 10:49:34;;;;;;;0.30;0.30;;;;;;;;;;5013082;28;20738;-74
2022/09/08 10:52:18;;;;;;;0.40;0.40;;;24.90;86.50;;;;;;5013391;28;20429;-72
2022/09/08 10:55:05;;;;;;;0.30;0.30;;;24.20;99.90;;;;;;5013298;28;20406;-74
2022/09/08 10:57:43;;;;;;;0.30;0.30;;;;;;;;;;5013007;28;20468;-73
2022/09/08 11:00:19;;;;;;;0.30;0.30;;;23.30;99.90;;;;;;5011614;28;20414;-74
2022/09/08 11:02:45;;;;;;;0.40;0.40;;;;;;;;;;5013280;28;20380;-72
2022/09/08 11:05:39;;;;;;;0.40;0.40;;;23.10;92.90;;;;;;5014342;28;20858;-74
2022/09/08 11:08:23;;;;;;;0.30;0.30;;;22.80;99.90;;;;;;5016380;28;20918;-73
2022/09/08 11:11:16;;;;;;;0.30;0.30;;;21.80;99.90;;;;;;5016377;28;20380;-72
2022/09/08 11:14:04;;;;;;;0.30;0.30;;;21.80;93.90;;;;;;5016549;28;20414;-73
2022/09/08 11:16:38;;;;;;;0.50;0.40;;;;;;;;;;5016758;28;20424;-73
2022/09/08 11:19:22;;;;;;;0.40;0.40;;;22.00;99.90;;;;;;5016319;28;20412;-72
2022/09/08 11:22:11;;;;;;;0.47;0.47;;;21.90;99.90;;;;;;5015972;28;20496;-72
2022/09/08 11:24:48;;;;;;;0.30;0.30;;;22.20;92.70;;;;;;4979656;28;20420;-72
2022/09/08 11:27:23;;;;;;;0.30;0.30;;;22.50;99.90;;;;;;5016182;28;20433;-71
2022/09/08 11:30:20;;;;;;;0.30;0.30;;;21.90;99.90;;;;;;5015984;28;20407;-74
2022/09/08 11:33:10;;;;;;;0.30;0.30;;;22.20;95.20;;;;;;5016238;28;20410;-73
2022/09/08 11:36:04;;;;;;;0.33;0.30;;;22.30;99.90;;;;;;5016322;28;20416;-73
2022/09/08 11:39:00;;;;;;;0.40;0.40;;;22.10;99.90;;;;;;5015853;28;20539;-72
2022/09/08 11:41:53;;;;;;;0.30;0.30;;;22.20;99.90;;;;;;5015737;28;20403;-72
2022/09/08 11:44:27;;;;;;;2.57;0.57;;;21.80;99.90;;;;;;5016130;28;20395;-74
2022/09/08 11:47:04;;;;;;;0.30;0.30;;;21.20;99.90;;;;;;5015977;28;20428;-73
2022/09/08 11:49:57;;;;;;;0.40;0.40;;;20.90;88.20;;;;;;5015710;28;20407;-72
2022/09/08 11:52:33;;;;;;;0.37;0.37;;;20.30;99.90;;;;;;5015965;28;20878;-73
2022/09/08 11:55:24;;;;;;;0.30;0.30;;;20.60;88.30;;;;;;5015904;28;20421;-72
2022/09/08 11:58:32;;;;;;;0.30;0.30;;;20.70;99.90;;;;;;5015822;28;20515;-73
2022/09/08 12:01:11;;;;;;;0.30;0.30;;;21.30;92.30;;;;;;5015375;28;20418;-73
2022/09/08 12:03:45;;;;;;;0.30;0.30;;;21.30;92.20;;;;;;5015725;28;20403;-73
2022/09/08 12:06:28;;;;;;;0.40;0.40;;;21.30;88.80;;;;;;5014139;28;20419;-74
2022/09/08 12:09:25;;;;;;;0.53;0.53;;;21.90;99.90;;;;;;5015492;28;20428;-73
2022/09/08 12:11:51;;;;;;;0.40;0.40;;;;;;;;;;5014149;28;20987;-73
2022/09/08 12:14:22;;;;;;;0.30;0.30;;;22.00;87.60;;;;;;5015292;28;20421;-72
2022/09/08 12:17:17;;;;;;;0.30;0.30;;;22.20;99.90;;;;;;5014849;28;20516;-73
2022/09/08 12:20:06;;;;;;;0.53;0.40;;;22.60;99.90;;;;;;5001098;28;20442;-72
2022/09/08 12:22:54;;;;;;;0.30;0.30;;;22.30;99.90;;;;;;5015182;28;20412;-72
2022/09/08 12:26:03;;;;;;;0.40;0.40;;;22.20;91.60;;;;;;5015166;28;20880;-73
2022/09/08 12:28:55;;;;;;;0.30;0.30;;;22.00;86.70;;;;;;4971210;28;20445;-73
2022/09/08 12:31:33;;;;;;;0.40;0.40;;;22.10;99.90;;;;;;5013633;28;20425;-73
2022/09/08 12:34:08;;;;;;;0.40;0.40;;;21.50;99.90;;;;;;5015039;28;20412;-71
2022/09/08 12:36:49;;;;;;;0.40;0.40;;;21.90;99.90;;;;;;5014914;28;20409;-72
2022/09/08 12:39:24;;;;;;;0.30;0.30;;;21.70;84.00;;;;;;5014807;28;20399;-74
2022/09/08 12:42:07;;;;;;;0.53;0.53;;;22.00;79.20;;;;;;5014623;28;20403;-73
2022/09/08 12:45:00;;;;;;;0.30;0.30;;;22.00;78.50;;;;;;5014782;28;20411;-73
2022/09/08 12:47:52;;;;;;;0.47;0.47;;;22.20;99.90;;;;;;5014693;28;20431;-72
2022/09/08 12:50:29;;;;;;;0.30;0.30;;;22.20;80.40;;;;;;5014915;28;20466;-72
2022/09/08 12:53:19;;;;;;;0.30;0.30;;;21.90;99.90;;;;;;5014840;28;20414;-72
2022/09/08 12:55:51;;;;;;;0.30;0.30;;;21.80;99.90;;;;;;5014765;28;20405;-73
2022/09/08 12:58:32;;;;;;;0.30;0.30;;;22.20;83.30;;;;;;5014544;28;20456;-72
2022/09/08 13:01:06;;;;;;;0.40;0.40;;;22.10;82.30;;;;;;5014496;28;20412;-73
2022/09/08 13:03:40;;;;;;;0.30;0.30;;;21.40;99.90;;;;;;5014530;28;20754;-74
2022/09/08 13:06:14;;;;;;;0.30;0.30;;;21.40;99.90;;;;;;5014609;28;20405;-73
2022/09/08 13:09:00;;;;;;;0.30;0.30;;;21.40;99.90;;;;;;5014690;28;20438;-72
2022/09/08 13:11:43;;;;;;;0.40;0.40;;;21.80;99.90;;;;;;5014256;28;20936;-73
2022/09/08 13:14:11;;;;;;;0.40;0.40;;;21.70;82.70;;;;;;5014266;28;20408;-74
2022/09/08 13:17:05;;;;;;;0.40;0.40;;;21.60;99.90;;;;;;5014232;28;20893;-72
2022/09/08 13:19:38;;;;;;;0.30;0.30;;;21.70;99.90;;;;;;5014369;28;20864;-73
2022/09/08 13:22:18;;;;;;;0.40;0.40;;;21.90;99.90;;;;;;5014501;28;20386;-73
2022/09/08 13:24:53;;;;;;;0.30;0.30;;;21.30;99.90;;;;;;5014232;28;20412;-72
2022/09/08 13:27:44;;;;;;;0.40;0.40;;;21.30;99.90;;;;;;5013437;28;20437;-72
2022/09/08 13:30:30;;;;;;;0.40;0.40;;;21.60;84.30;;;;;;5014008;28;20885;-74
2022/09/08 13:33:06;;;;;;;0.50;0.50;;;20.90;99.90;;;;;;5014046;28;20406;-74
2022/09/08 13:35:46;;;;;;;0.47;0.40;;;21.20;99.90;;;;;;5014123;28;20456;-72
2022/09/08 13:38:27;;;;;;;4.10;0.50;;;20.80;99.90;;;;;;5013974;28;20457;-73
2022/09/08 13:41:01;;;;;;;0.30;0.30;;;21.20;99.90;;;;;;5013976;28;20456;-73
2022/09/08 13:43:35;;;;;;;0.40;0.40;;;21.00;83.70;;;;;;5014111;28;20494;-73
2022/09/08 13:46:04;;;;;;;0.30;0.30;;;20.20;99.90;;;;;;5013978;28;20401;-73
2022/09/08 13:48:55;;;;;;;0.30;0.30;;;20.40;85.80;;;;;;5013718;28;20438;-73
2022/09/08 13:51:36;;;;;;;0.30;0.30;;;20.30;88.30;;;;;;5003093;28;20431;-73
2022/09/08 13:54:22;;;;;;;0.30;0.30;;;20.10;97.70;;;;;;5013887;28;20471;-72
2022/09/08 13:57:17;;;;;;;0.30;0.30;;;20.50;99.90;;;;;;5013752;28;20512;-73
2022/09/08 14:00:09;;;;;;;0.40;0.40;;;20.00;99.90;;;;;;5013662;28;20414;-73
2022/09/08 14:02:44;;;;;;;0.50;0.50;;;20.10;90.70;;;;;;5013886;28;20813;-73
2022/09/08 14:05:28;;;;;;;0.40;0.40;;;20.10;90.40;;;;;;5013566;28;20413;-73
2022/09/08 14:08:15;;;;;;;0.40;0.40;;;20.50;99.90;;;;;;5013557;28;20433;-72
2022/09/08 14:10:41;;;;;;;0.30;0.30;;;;;;;;;;5013510;28;20417;-73
2022/09/08 14:13:13;;;;;;;0.43;0.43;;;20.10;84.00;;;;;;5013666;28;20395;-73
2022/09/08 14:15:52;;;;;;;0.30;0.30;;;20.10;90.30;;;;;;5013493;28;20429;-72